createdAt,value
2018-05-09T00:02:10.220Z,13.35
2018-05-09T00:04:38.623Z,13.13
2018-05-09T00:07:07.025Z,13.54
2018-05-09T00:09:35.768Z,13.54
2018-05-09T00:12:04.309Z,13.52
2018-05-09T00:14:32.631Z,13.09
2018-05-09T00:17:01.411Z,13.01
2018-05-09T00:19:29.807Z,12.92
2018-05-09T00:21:58.215Z,12.80
2018-05-09T00:24:26.819Z,12.83
2018-05-09T00:26:56.207Z,12.72
2018-05-09T00:29:24.606Z,12.87
2018-05-09T00:31:53.182Z,13.12
2018-05-09T00:34:21.565Z,13.34
2018-05-09T00:36:49.959Z,13.30
2018-05-09T00:39:18.775Z,13.23
2018-05-09T00:41:47.243Z,13.40
2018-05-09T00:44:15.577Z,13.29
2018-05-09T00:46:44.208Z,13.20
2018-05-09T00:49:12.590Z,13.38
2018-05-09T00:51:40.981Z,13.31
2018-05-09T00:54:21.687Z,13.23
2018-05-09T00:56:50.047Z,13.15
2018-05-09T00:59:18.452Z,13.17
2018-05-09T01:01:46.887Z,13.10
2018-05-09T01:04:15.517Z,12.96
2018-05-09T01:06:43.964Z,12.81
2018-05-09T01:09:12.743Z,12.93
2018-05-09T01:11:41.145Z,13.04
2018-05-09T01:14:09.591Z,12.93
2018-05-09T01:16:38.063Z,12.94
2018-05-09T01:19:06.475Z,12.83
2018-05-09T01:21:34.880Z,12.75
2018-05-09T01:24:03.641Z,12.58
2018-05-09T01:26:32.036Z,12.87
2018-05-09T01:29:00.428Z,12.47
2018-05-09T01:31:29.123Z,12.71
2018-05-09T01:33:57.525Z,12.55
2018-05-09T01:36:26.036Z,12.61
2018-05-09T01:38:54.842Z,12.48
2018-05-09T01:41:23.297Z,12.72
2018-05-09T01:43:51.754Z,12.63
2018-05-09T01:46:20.396Z,12.61
2018-05-09T01:48:48.828Z,12.54
2018-05-09T01:51:17.227Z,12.50
2018-05-09T01:53:46.215Z,12.44
2018-05-09T01:56:14.625Z,12.70
2018-05-09T01:58:43.102Z,12.51
2018-05-09T02:01:11.696Z,12.59
2018-05-09T02:03:40.083Z,12.72
2018-05-09T02:06:08.497Z,12.38
2018-05-09T02:08:37.243Z,12.56
2018-05-09T02:11:05.644Z,12.44
2018-05-09T02:13:34.059Z,12.57
2018-05-09T02:16:02.888Z,12.49
2018-05-09T02:18:31.330Z,12.42
2018-05-09T02:20:59.743Z,12.50
2018-05-09T02:23:28.517Z,12.26
2018-05-09T02:25:56.906Z,12.27
2018-05-09T02:28:26.183Z,12.28
2018-05-09T02:30:54.743Z,12.25
2018-05-09T02:33:23.119Z,12.11
2018-05-09T02:35:51.500Z,12.50
2018-05-09T02:38:19.941Z,12.42
2018-05-09T02:40:48.331Z,12.36
2018-05-09T02:43:16.807Z,12.59
2018-05-09T02:45:45.336Z,12.68
2018-05-09T02:48:13.731Z,12.29
2018-05-09T02:50:42.135Z,12.25
2018-05-09T02:53:10.933Z,12.08
2018-05-09T02:55:39.336Z,12.31
2018-05-09T02:58:07.748Z,12.25
2018-05-09T03:00:37.312Z,12.13
2018-05-09T03:03:05.750Z,12.11
2018-05-09T03:05:34.122Z,12.18
2018-05-09T03:08:02.530Z,11.98
2018-05-09T03:10:30.951Z,11.97
2018-05-09T03:12:59.382Z,11.90
2018-05-09T03:15:28.205Z,11.90
2018-05-09T03:17:56.611Z,11.98
2018-05-09T03:20:25.110Z,11.87
2018-05-09T03:22:53.939Z,12.02
2018-05-09T03:25:22.276Z,11.74
2018-05-09T03:27:50.848Z,11.89
2018-05-09T03:30:19.600Z,11.74
2018-05-09T03:32:47.996Z,11.92
2018-05-09T03:35:16.373Z,11.74
2018-05-09T03:37:44.961Z,12.10
2018-05-09T03:40:13.436Z,12.04
2018-05-09T03:42:41.901Z,11.94
2018-05-09T03:45:10.326Z,12.19
2018-05-09T03:47:38.707Z,12.26
2018-05-09T03:50:07.271Z,12.49
2018-05-09T03:52:35.739Z,12.37
2018-05-09T03:55:04.186Z,12.30
2018-05-09T03:57:32.682Z,12.05
2018-05-09T04:00:01.252Z,12.15
2018-05-09T04:02:44.291Z,12.29
2018-05-09T04:05:24.689Z,12.41
2018-05-09T04:08:04.815Z,12.38
2018-05-09T04:10:33.639Z,12.48
2018-05-09T04:13:02.065Z,12.59
2018-05-09T04:15:30.464Z,12.58
2018-05-09T04:17:59.163Z,12.72
2018-05-09T04:20:27.595Z,13.00
2018-05-09T04:22:56.020Z,12.85
2018-05-09T04:25:24.816Z,13.06
2018-05-09T04:27:54.423Z,13.21
2018-05-09T04:30:22.800Z,13.39
2018-05-09T04:32:51.247Z,13.48
2018-05-09T04:35:19.619Z,13.58
2018-05-09T04:37:48.701Z,13.41
2018-05-09T04:40:17.296Z,13.60
2018-05-09T04:42:45.684Z,13.63
2018-05-09T04:45:14.088Z,13.59
2018-05-09T04:47:42.593Z,13.76
2018-05-09T04:50:11.118Z,13.88
2018-05-09T04:52:39.561Z,13.81
2018-05-09T04:55:08.045Z,14.00
2018-05-09T04:57:36.412Z,14.25
2018-05-09T05:00:04.881Z,14.37
2018-05-09T05:02:33.628Z,14.52
2018-05-09T05:05:02.037Z,14.72
2018-05-09T05:07:30.447Z,14.80
2018-05-09T05:09:58.980Z,14.41
2018-05-09T05:12:27.393Z,14.71
2018-05-09T05:14:55.921Z,15.22
2018-05-09T05:17:24.395Z,15.36
2018-05-09T05:19:52.801Z,15.38
2018-05-09T05:22:21.247Z,15.73
2018-05-09T05:24:50.000Z,15.92
2018-05-09T05:27:18.415Z,15.90
2018-05-09T05:29:46.792Z,16.00
2018-05-09T05:32:15.243Z,16.05
2018-05-09T05:34:43.640Z,16.05
2018-05-09T05:37:12.185Z,15.55
2018-05-09T05:39:41.021Z,15.09
2018-05-09T05:42:09.403Z,16.00
2018-05-09T05:44:37.793Z,16.46
2018-05-09T05:47:06.571Z,16.50
2018-05-09T05:49:34.967Z,16.42
2018-05-09T05:52:03.387Z,16.70
2018-05-09T05:54:31.827Z,16.81
2018-05-09T05:57:00.332Z,16.84
2018-05-09T05:59:28.744Z,17.18
2018-05-09T06:01:57.561Z,16.99
2018-05-09T06:04:25.946Z,17.30
2018-05-09T06:06:54.403Z,17.24
2018-05-09T06:09:22.855Z,17.48
2018-05-09T06:11:51.280Z,17.44
2018-05-09T06:14:19.692Z,17.60
2018-05-09T06:16:48.116Z,17.69
2018-05-09T06:19:16.544Z,17.62
2018-05-09T06:21:44.964Z,17.72
2018-05-09T06:24:13.400Z,17.97
2018-05-09T06:26:41.869Z,18.15
2018-05-09T06:29:10.435Z,18.36
2018-05-09T06:31:38.820Z,18.40
2018-05-09T06:34:07.267Z,17.99
2018-05-09T06:36:35.671Z,18.11
2018-05-09T06:39:04.183Z,17.84
2018-05-09T06:41:32.599Z,18.02
2018-05-09T06:44:01.016Z,18.30
2018-05-09T06:46:29.583Z,18.46
2018-05-09T06:48:57.984Z,18.25
2018-05-09T06:51:26.423Z,18.05
2018-05-09T06:53:54.859Z,18.34
2018-05-09T06:56:23.326Z,18.43
2018-05-09T06:58:51.812Z,19.05
2018-05-09T07:01:20.257Z,18.64
2018-05-09T07:03:48.641Z,18.51
2018-05-09T07:06:17.109Z,18.90
2018-05-09T07:08:45.523Z,18.64
2018-05-09T07:11:13.969Z,18.44
2018-05-09T07:13:42.355Z,18.54
2018-05-09T07:16:10.779Z,18.86
2018-05-09T07:18:39.203Z,18.74
2018-05-09T07:21:07.609Z,18.74
2018-05-09T07:23:36.065Z,19.14
2018-05-09T07:26:04.476Z,19.26
2018-05-09T07:28:32.928Z,19.27
2018-05-09T07:31:01.359Z,18.95
2018-05-09T07:33:29.769Z,19.11
2018-05-09T07:35:58.167Z,19.00
2018-05-09T07:38:26.595Z,19.16
2018-05-09T07:40:55.062Z,19.42
2018-05-09T07:43:23.495Z,19.36
2018-05-09T07:45:51.976Z,19.50
2018-05-09T07:48:20.421Z,20.11
2018-05-09T07:50:48.839Z,19.36
2018-05-09T07:53:17.270Z,19.35
2018-05-09T07:55:45.724Z,19.54
2018-05-09T07:58:14.111Z,19.44
2018-05-09T08:00:42.547Z,19.41
2018-05-09T08:03:10.979Z,19.45
2018-05-09T08:05:39.550Z,19.82
2018-05-09T08:08:07.963Z,19.77
2018-05-09T08:10:36.400Z,19.86
2018-05-09T08:13:04.840Z,20.44
2018-05-09T08:15:33.258Z,19.91
2018-05-09T08:18:01.698Z,20.26
2018-05-09T08:20:30.153Z,20.48
2018-05-09T08:22:58.599Z,20.25
2018-05-09T08:25:27.035Z,20.04
2018-05-09T08:27:55.475Z,20.37
2018-05-09T08:30:24.156Z,20.26
2018-05-09T08:32:52.481Z,20.30
2018-05-09T08:35:20.948Z,20.46
2018-05-09T08:37:49.324Z,20.52
2018-05-09T08:40:17.811Z,21.16
2018-05-09T08:42:46.279Z,21.42
2018-05-09T08:45:14.724Z,21.32
2018-05-09T08:47:43.178Z,21.09
2018-05-09T08:50:11.628Z,21.00
2018-05-09T08:52:40.052Z,21.02
2018-05-09T08:55:08.490Z,20.83
2018-05-09T08:57:37.000Z,20.97
2018-05-09T09:00:05.453Z,21.43
2018-05-09T09:02:33.907Z,20.87
2018-05-09T09:05:02.313Z,20.70
2018-05-09T09:07:30.877Z,21.20
2018-05-09T09:09:59.263Z,21.12
2018-05-09T09:12:27.681Z,21.19
2018-05-09T09:14:56.085Z,20.90
2018-05-09T09:17:24.519Z,20.99
2018-05-09T09:19:53.023Z,21.33
2018-05-09T09:22:21.468Z,21.46
2018-05-09T09:24:49.860Z,21.96
2018-05-09T09:27:18.311Z,22.46
2018-05-09T09:29:46.685Z,22.07
2018-05-09T09:32:15.177Z,21.79
2018-05-09T09:34:43.697Z,21.88
2018-05-09T09:37:12.092Z,21.87
2018-05-09T09:39:40.528Z,21.99
2018-05-09T09:42:08.960Z,21.80
2018-05-09T09:44:37.395Z,22.07
2018-05-09T09:47:05.823Z,22.44
2018-05-09T09:49:34.369Z,22.33
2018-05-09T09:52:02.793Z,22.52
2018-05-09T09:54:31.260Z,22.75
2018-05-09T09:56:59.693Z,23.01
2018-05-09T09:59:28.129Z,23.35
2018-05-09T10:01:56.572Z,23.70
2018-05-09T10:04:25.060Z,22.98
2018-05-09T10:06:53.505Z,23.12
2018-05-09T10:09:22.029Z,22.65
2018-05-09T10:11:50.498Z,23.01
2018-05-09T10:14:18.927Z,23.41
2018-05-09T10:16:47.368Z,23.55
2018-05-09T10:19:15.831Z,23.75
2018-05-09T10:21:44.335Z,24.07
2018-05-09T10:24:12.719Z,23.81
2018-05-09T10:26:41.151Z,23.69
2018-05-09T10:29:09.552Z,23.17
2018-05-09T10:31:38.093Z,23.30
2018-05-09T10:34:06.461Z,23.64
2018-05-09T10:36:34.879Z,23.55
2018-05-09T10:39:03.316Z,23.40
2018-05-09T10:41:31.810Z,24.70
2018-05-09T10:44:00.227Z,25.35
2018-05-09T10:46:28.672Z,24.20
2018-05-09T10:48:57.051Z,24.14
2018-05-09T10:51:25.515Z,24.54
2018-05-09T10:53:53.930Z,25.71
2018-05-09T10:56:22.472Z,25.57
2018-05-09T10:58:50.890Z,25.83
2018-05-09T11:01:19.315Z,26.12
2018-05-09T11:03:47.838Z,26.67
2018-05-09T11:06:16.242Z,24.82
2018-05-09T11:08:44.659Z,24.76
2018-05-09T11:11:13.051Z,25.00
2018-05-09T11:13:41.579Z,25.47
2018-05-09T11:16:09.987Z,25.94
2018-05-09T11:18:38.406Z,26.81
2018-05-09T11:21:06.905Z,26.97
2018-05-09T11:23:35.319Z,26.39
2018-05-09T11:26:03.803Z,26.77
2018-05-09T11:28:32.250Z,26.30
2018-05-09T11:31:00.830Z,27.10
2018-05-09T11:33:29.262Z,27.04
2018-05-09T11:35:57.699Z,26.92
2018-05-09T11:38:26.128Z,26.95
2018-05-09T11:40:54.544Z,25.89
2018-05-09T11:43:22.993Z,27.36
2018-05-09T11:45:51.408Z,26.75
2018-05-09T11:48:19.899Z,26.39
2018-05-09T11:50:48.292Z,26.81
2018-05-09T11:53:16.875Z,27.93
2018-05-09T11:55:45.163Z,29.55
2018-05-09T11:58:13.969Z,28.95
2018-05-09T12:00:42.357Z,30.20
2018-05-09T12:03:10.841Z,29.46
2018-05-09T12:05:39.468Z,28.72
2018-05-09T12:08:07.964Z,27.61
2018-05-09T12:10:36.632Z,27.22
2018-05-09T12:13:05.038Z,27.87
2018-05-09T12:15:33.519Z,28.89
2018-05-09T12:18:01.905Z,30.95
2018-05-09T12:20:30.297Z,31.07
2018-05-09T12:22:58.712Z,30.33
2018-05-09T12:25:27.131Z,29.03
2018-05-09T12:27:55.563Z,29.11
2018-05-09T12:30:24.135Z,29.07
2018-05-09T12:32:52.571Z,30.73
2018-05-09T12:35:20.968Z,29.96
2018-05-09T12:37:49.379Z,30.91
2018-05-09T12:40:17.831Z,30.86
2018-05-09T12:42:46.220Z,30.71
2018-05-09T12:45:14.596Z,31.87
2018-05-09T12:47:43.045Z,32.76
2018-05-09T12:50:11.439Z,32.24
2018-05-09T12:52:39.832Z,33.06
2018-05-09T12:55:08.247Z,34.72
2018-05-09T12:57:36.650Z,35.31
2018-05-09T13:00:05.104Z,35.67
2018-05-09T13:02:33.511Z,33.41
2018-05-09T13:05:01.894Z,32.78
2018-05-09T13:07:30.375Z,32.80
2018-05-09T13:09:58.788Z,33.49
2018-05-09T13:12:27.186Z,33.88
2018-05-09T13:14:55.619Z,34.05
2018-05-09T13:17:23.991Z,33.35
2018-05-09T13:19:52.455Z,32.57
2018-05-09T13:22:20.855Z,33.78
2018-05-09T13:24:49.278Z,33.01
2018-05-09T13:27:17.655Z,31.35
2018-05-09T13:29:46.120Z,31.25
2018-05-09T13:32:14.508Z,32.84
2018-05-09T13:34:42.908Z,33.78
2018-05-09T13:37:11.379Z,34.58
2018-05-09T13:39:39.907Z,33.52
2018-05-09T13:42:10.556Z,34.61
2018-05-09T13:44:39.870Z,34.51
2018-05-09T13:47:09.587Z,34.39
2018-05-09T13:49:38.020Z,32.72
2018-05-09T13:52:06.472Z,31.79
2018-05-09T13:54:35.078Z,30.90
2018-05-09T13:57:03.466Z,32.51
2018-05-09T13:59:31.844Z,33.95
2018-05-09T14:02:00.367Z,35.23
2018-05-09T14:04:28.763Z,34.76
2018-05-09T14:06:57.153Z,34.42
2018-05-09T14:09:25.565Z,35.05
2018-05-09T14:11:53.972Z,35.83
2018-05-09T14:14:22.376Z,35.51
2018-05-09T14:16:51.210Z,36.08
2018-05-09T14:19:19.588Z,34.17
2018-05-09T14:21:47.993Z,33.31
2018-05-09T14:24:16.648Z,34.03
2018-05-09T14:26:45.016Z,33.63
2018-05-09T14:29:13.448Z,33.01
2018-05-09T14:31:41.919Z,32.30
2018-05-09T14:34:10.453Z,33.75
2018-05-09T14:36:38.850Z,32.41
2018-05-09T14:39:07.291Z,32.39
2018-05-09T14:41:35.692Z,32.17
2018-05-09T14:44:04.100Z,32.66
2018-05-09T14:46:32.733Z,33.66
2018-05-09T14:49:01.219Z,34.07
2018-05-09T14:51:29.652Z,34.49
2018-05-09T14:53:58.191Z,36.23
2018-05-09T14:56:26.573Z,37.03
2018-05-09T14:58:54.990Z,36.73
2018-05-09T15:01:23.415Z,34.73
2018-05-09T15:03:51.783Z,35.04
2018-05-09T15:06:20.352Z,36.24
2018-05-09T15:08:49.015Z,36.83
2018-05-09T15:11:17.409Z,38.73
2018-05-09T15:13:45.833Z,39.49
2018-05-09T15:16:14.328Z,40.59
2018-05-09T15:18:43.168Z,39.30
2018-05-09T15:21:11.551Z,38.44
2018-05-09T15:23:40.308Z,39.34
2018-05-09T15:26:08.768Z,39.35
2018-05-09T15:28:37.189Z,37.94
2018-05-09T15:31:05.976Z,36.95
2018-05-09T15:33:34.359Z,35.31
2018-05-09T15:36:02.880Z,35.17
2018-05-09T15:38:31.509Z,36.98
2018-05-09T15:40:59.980Z,36.93
2018-05-09T15:43:28.392Z,37.96
2018-05-09T15:45:56.792Z,37.67
2018-05-09T15:48:25.207Z,35.33
2018-05-09T15:50:53.701Z,35.25
2018-05-09T15:53:22.127Z,34.86
2018-05-09T15:55:50.747Z,36.00
2018-05-09T15:58:19.301Z,36.63
2018-05-09T16:00:48.741Z,35.59
2018-05-09T16:03:17.124Z,34.53
2018-05-09T16:05:45.621Z,33.06
2018-05-09T16:08:14.107Z,32.01
2018-05-09T16:10:42.556Z,32.28
2018-05-09T16:13:10.939Z,32.71
2018-05-09T16:15:39.461Z,33.46
2018-05-09T16:18:07.928Z,33.41
2018-05-09T16:20:36.383Z,33.29
2018-05-09T16:23:04.841Z,32.71
2018-05-09T16:25:33.310Z,32.77
2018-05-09T16:28:01.760Z,33.05
2018-05-09T16:30:30.212Z,33.04
2018-05-09T16:32:58.650Z,32.03
2018-05-09T16:35:27.077Z,30.93
2018-05-09T16:37:55.566Z,30.91
2018-05-09T16:40:23.977Z,29.74
2018-05-09T16:42:52.436Z,29.26
2018-05-09T16:45:21.243Z,29.54
2018-05-09T16:47:49.631Z,28.92
2018-05-09T16:50:18.047Z,28.69
2018-05-09T16:52:46.515Z,26.72
2018-05-09T16:55:14.920Z,26.15
2018-05-09T16:57:43.300Z,25.89
2018-05-09T17:00:11.865Z,25.50
2018-05-09T17:02:40.252Z,24.73
2018-05-09T17:05:08.712Z,24.02
2018-05-09T17:07:37.240Z,23.86
2018-05-09T17:10:05.719Z,23.07
2018-05-09T17:12:34.134Z,23.13
2018-05-09T17:15:02.844Z,23.25
2018-05-09T17:17:31.404Z,23.71
2018-05-09T17:19:59.874Z,24.28
2018-05-09T17:22:34.155Z,24.41
2018-05-09T17:25:02.555Z,23.75
2018-05-09T17:27:30.939Z,23.50
2018-05-09T17:29:59.643Z,23.14
2018-05-09T17:32:28.023Z,22.96
2018-05-09T17:34:56.492Z,22.72
2018-05-09T17:37:24.952Z,22.70
2018-05-09T17:39:53.340Z,22.36
2018-05-09T17:42:21.755Z,22.20
2018-05-09T17:44:50.238Z,22.22
2018-05-09T17:47:18.646Z,22.13
2018-05-09T17:49:47.067Z,21.95
2018-05-09T17:52:15.686Z,22.01
2018-05-09T17:54:44.075Z,21.81
2018-05-09T17:57:12.465Z,21.63
2018-05-09T17:59:40.892Z,21.60
2018-05-09T18:02:09.315Z,21.28
2018-05-09T18:04:37.707Z,21.37
2018-05-09T18:07:06.149Z,21.21
2018-05-09T18:09:34.601Z,21.04
2018-05-09T18:12:03.016Z,21.06
2018-05-09T18:14:31.515Z,20.68
2018-05-09T18:16:59.909Z,20.77
2018-05-09T18:19:28.333Z,20.74
2018-05-09T18:21:56.920Z,20.41
2018-05-09T18:24:25.376Z,20.62
2018-05-09T18:26:53.885Z,20.62
2018-05-09T18:29:22.399Z,20.55
2018-05-09T18:31:50.837Z,20.39
2018-05-09T18:34:19.235Z,20.29
2018-05-09T18:36:47.835Z,20.31
2018-05-09T18:39:16.227Z,20.32
2018-05-09T18:41:44.600Z,20.22
2018-05-09T18:44:13.071Z,20.12
2018-05-09T18:46:41.494Z,20.16
2018-05-09T18:49:09.924Z,20.07
2018-05-09T18:51:38.379Z,19.98
2018-05-09T18:54:06.978Z,19.85
2018-05-09T18:56:35.287Z,19.38
2018-05-09T18:59:03.760Z,19.63
2018-05-09T19:01:32.196Z,19.35
2018-05-09T19:04:00.566Z,19.08
2018-05-09T19:06:29.069Z,19.36
2018-05-09T19:08:57.425Z,19.37
2018-05-09T19:11:26.084Z,19.03
2018-05-09T19:13:54.674Z,19.00
2018-05-09T19:16:23.081Z,18.82
2018-05-09T19:18:51.497Z,18.64
2018-05-09T19:21:19.932Z,18.31
2018-05-09T19:23:48.321Z,18.33
2018-05-09T19:26:16.767Z,18.40
2018-05-09T19:28:45.226Z,18.40
2018-05-09T19:31:13.702Z,18.05
2018-05-09T19:33:42.103Z,17.60
2018-05-09T19:36:10.560Z,17.93
2018-05-09T19:38:39.014Z,17.81
2018-05-09T19:41:07.917Z,17.86
2018-05-09T19:43:36.364Z,17.72
2018-05-09T19:46:04.779Z,17.82
2018-05-09T19:48:33.180Z,17.70
2018-05-09T19:51:01.607Z,17.61
2018-05-09T19:53:30.044Z,17.65
2018-05-09T19:55:58.433Z,17.19
2018-05-09T19:58:26.887Z,17.15
2018-05-09T20:00:55.288Z,17.25
2018-05-09T20:03:23.686Z,17.16
2018-05-09T20:05:52.219Z,17.32
2018-05-09T20:08:20.635Z,17.28
2018-05-09T20:10:49.016Z,17.14
2018-05-09T20:13:17.636Z,17.15
2018-05-09T20:15:46.046Z,17.18
2018-05-09T20:18:14.432Z,16.78
2018-05-09T20:20:43.193Z,16.84
2018-05-09T20:23:11.592Z,17.13
2018-05-09T20:25:40.010Z,17.00
2018-05-09T20:28:08.436Z,17.26
2018-05-09T20:30:42.551Z,17.03
2018-05-09T20:33:11.203Z,16.77
2018-05-09T20:35:39.719Z,16.80
2018-05-09T20:38:08.125Z,16.96
2018-05-09T20:40:36.734Z,16.89
2018-05-09T20:43:05.138Z,16.66
2018-05-09T20:45:33.558Z,16.80
2018-05-09T20:48:02.228Z,16.78
2018-05-09T20:50:30.676Z,16.71
2018-05-09T20:52:59.120Z,16.61
2018-05-09T20:55:29.244Z,16.56
2018-05-09T20:57:57.622Z,16.63
2018-05-09T21:00:26.137Z,16.42
2018-05-09T21:02:54.734Z,16.29
2018-05-09T21:05:23.135Z,16.28
2018-05-09T21:07:56.477Z,16.38
2018-05-09T21:10:24.875Z,16.27
2018-05-09T21:12:53.320Z,16.27
2018-05-09T21:15:21.796Z,16.13
2018-05-09T21:17:50.228Z,16.22
2018-05-09T21:20:18.614Z,16.39
2018-05-09T21:22:47.322Z,16.25
2018-05-09T21:25:15.740Z,15.88
2018-05-09T21:27:44.159Z,15.78
2018-05-09T21:30:12.646Z,15.71
2018-05-09T21:32:41.199Z,15.40
2018-05-09T21:35:09.663Z,15.96
2018-05-09T21:37:38.290Z,15.44
2018-05-09T21:40:06.758Z,15.55
2018-05-09T21:42:35.144Z,15.94
2018-05-09T21:45:03.631Z,15.61
2018-05-09T21:47:32.019Z,15.85
2018-05-09T21:50:00.451Z,15.79
2018-05-09T21:52:28.892Z,15.63
2018-05-09T21:54:57.273Z,15.91
2018-05-09T21:57:25.666Z,15.74
2018-05-09T21:59:54.079Z,15.72
2018-05-09T22:02:22.487Z,15.78
2018-05-09T22:04:50.979Z,15.82
2018-05-09T22:07:19.461Z,15.60
2018-05-09T22:09:47.903Z,15.83
2018-05-09T22:12:16.317Z,15.93
2018-05-09T22:14:44.921Z,15.28
2018-05-09T22:17:13.375Z,15.11
2018-05-09T22:19:41.792Z,15.06
2018-05-09T22:22:10.435Z,15.42
2018-05-09T22:24:38.819Z,15.02
2018-05-09T22:27:07.199Z,14.93
2018-05-09T22:29:35.816Z,14.94
2018-05-09T22:32:04.234Z,14.88
2018-05-09T22:34:32.624Z,15.12
2018-05-09T22:37:01.098Z,15.07
2018-05-09T22:39:29.507Z,15.01
2018-05-09T22:41:57.891Z,14.88
2018-05-09T22:44:26.512Z,15.05
2018-05-09T22:46:54.941Z,15.03
2018-05-09T22:49:23.326Z,14.92
2018-05-09T22:51:51.752Z,15.08
2018-05-09T22:54:20.140Z,14.83
2018-05-09T22:56:48.627Z,14.59
2018-05-09T22:59:17.061Z,14.81
2018-05-09T23:01:45.470Z,14.59
2018-05-09T23:04:13.864Z,14.53
2018-05-09T23:06:42.535Z,14.70
2018-05-09T23:09:10.937Z,14.91
2018-05-09T23:11:39.305Z,14.96
2018-05-09T23:14:07.810Z,14.87
2018-05-09T23:16:36.214Z,15.03
2018-05-09T23:19:04.621Z,14.78
2018-05-09T23:21:33.087Z,14.65
2018-05-09T23:24:01.494Z,14.93
2018-05-09T23:26:29.893Z,14.96
2018-05-09T23:28:58.325Z,14.80
2018-05-09T23:31:26.726Z,14.94
2018-05-09T23:33:55.180Z,15.12
2018-05-09T23:36:23.664Z,14.97
2018-05-09T23:38:52.069Z,15.09
2018-05-09T23:41:20.484Z,14.75
2018-05-09T23:43:49.144Z,14.50
2018-05-09T23:46:17.581Z,14.91
2018-05-09T23:48:45.983Z,14.64
2018-05-09T23:51:14.703Z,14.73
2018-05-09T23:53:43.094Z,14.79
2018-05-09T23:56:11.491Z,14.54
2018-05-09T23:58:39.951Z,14.83
